sensor_id;sensor_type;location;lat;lon;timestamp;temperature;humidity
10316;DHT22;5203;48.976;8.306;2023-03-01T00:01:27;1.80;60.40
10316;DHT22;5203;48.976;8.306;2023-03-01T00:03:53;1.60;61.10
10316;DHT22;5203;48.976;8.306;2023-03-01T00:06:20;1.40;62.00
10316;DHT22;5203;48.976;8.306;2023-03-01T00:08:46;1.30;63.00
10316;DHT22;5203;48.976;8.306;2023-03-01T00:11:23;1.20;63.70
10316;DHT22;5203;48.976;8.306;2023-03-01T00:13:52;1.20;63.80
10316;DHT22;5203;48.976;8.306;2023-03-01T00:16:24;1.30;63.40
10316;DHT22;5203;48.976;8.306;2023-03-01T00:18:49;1.30;63.30
10316;DHT22;5203;48.976;8.306;2023-03-01T00:21:16;1.40;63.40
10316;DHT22;5203;48.976;8.306;2023-03-01T00:23:42;1.50;63.10
10316;DHT22;5203;48.976;8.306;2023-03-01T00:26:11;1.40;62.40
10316;DHT22;5203;48.976;8.306;2023-03-01T00:28:38;1.30;63.70
10316;DHT22;5203;48.976;8.306;2023-03-01T00:31:12;1.30;64.00
10316;DHT22;5203;48.976;8.306;2023-03-01T00:33:38;1.30;63.50
10316;DHT22;5203;48.976;8.306;2023-03-01T00:36:04;1.30;64.60
10316;DHT22;5203;48.976;8.306;2023-03-01T00:38:30;1.30;64.30
10316;DHT22;5203;48.976;8.306;2023-03-01T00:41:06;1.30;63.80
10316;DHT22;5203;48.976;8.306;2023-03-01T00:43:33;1.40;63.90
10316;DHT22;5203;48.976;8.306;2023-03-01T00:46:06;1.40;63.80
10316;DHT22;5203;48.976;8.306;2023-03-01T00:48:32;1.50;64.30
10316;DHT22;5203;48.976;8.306;2023-03-01T00:51:05;1.60;63.60
10316;DHT22;5203;48.976;8.306;2023-03-01T00:53:30;1.60;63.70
10316;DHT22;5203;48.976;8.306;2023-03-01T00:55:57;1.60;62.70
10316;DHT22;5203;48.976;8.306;2023-03-01T00:58:23;1.60;63.00
10316;DHT22;5203;48.976;8.306;2023-03-01T01:00:49;1.60;62.40
10316;DHT22;5203;48.976;8.306;2023-03-01T01:03:14;1.50;63.10
10316;DHT22;5203;48.976;8.306;2023-03-01T01:05:40;1.40;62.90
10316;DHT22;5203;48.976;8.306;2023-03-01T01:08:06;1.20;63.70
10316;DHT22;5203;48.976;8.306;2023-03-01T01:10:34;1.20;64.60
10316;DHT22;5203;48.976;8.306;2023-03-01T01:13:00;1.10;64.60
10316;DHT22;5203;48.976;8.306;2023-03-01T01:15:26;1.00;64.90
10316;DHT22;5203;48.976;8.306;2023-03-01T01:17:51;0.90;65.70
10316;DHT22;5203;48.976;8.306;2023-03-01T01:20:17;0.90;66.70
10316;DHT22;5203;48.976;8.306;2023-03-01T01:22:43;1.00;66.20
10316;DHT22;5203;48.976;8.306;2023-03-01T01:25:09;1.00;65.70
10316;DHT22;5203;48.976;8.306;2023-03-01T01:27:34;1.00;66.00
10316;DHT22;5203;48.976;8.306;2023-03-01T01:30:00;1.10;66.60
10316;DHT22;5203;48.976;8.306;2023-03-01T01:32:26;1.00;65.70
10316;DHT22;5203;48.976;8.306;2023-03-01T01:34:52;1.00;66.10
10316;DHT22;5203;48.976;8.306;2023-03-01T01:37:17;1.10;66.40
10316;DHT22;5203;48.976;8.306;2023-03-01T01:39:43;1.10;66.10
10316;DHT22;5203;48.976;8.306;2023-03-01T01:42:17;1.10;66.50
10316;DHT22;5203;48.976;8.306;2023-03-01T01:44:46;1.30;66.60
10316;DHT22;5203;48.976;8.306;2023-03-01T01:47:18;1.50;65.90
10316;DHT22;5203;48.976;8.306;2023-03-01T01:49:55;1.50;64.70
10316;DHT22;5203;48.976;8.306;2023-03-01T01:55:08;1.50;65.10
10316;DHT22;5203;48.976;8.306;2023-03-01T01:57:45;1.50;64.50
10316;DHT22;5203;48.976;8.306;2023-03-01T02:02:46;1.40;64.60
10316;DHT22;5203;48.976;8.306;2023-03-01T02:05:22;1.40;64.90
10316;DHT22;5203;48.976;8.306;2023-03-01T02:07:50;1.30;64.70
10316;DHT22;5203;48.976;8.306;2023-03-01T02:10:16;1.10;65.30
10316;DHT22;5203;48.976;8.306;2023-03-01T02:12:42;1.00;66.40
10316;DHT22;5203;48.976;8.306;2023-03-01T02:15:08;1.00;67.00
10316;DHT22;5203;48.976;8.306;2023-03-01T02:17:34;1.10;67.50
10316;DHT22;5203;48.976;8.306;2023-03-01T02:22:37;1.10;66.10
10316;DHT22;5203;48.976;8.306;2023-03-01T02:28:05;0.90;66.70
10316;DHT22;5203;48.976;8.306;2023-03-01T02:30:34;0.90;67.70
10316;DHT22;5203;48.976;8.306;2023-03-01T02:33:03;0.90;67.90
10316;DHT22;5203;48.976;8.306;2023-03-01T02:35:38;1.00;67.80
10316;DHT22;5203;48.976;8.306;2023-03-01T02:38:06;1.00;67.20
10316;DHT22;5203;48.976;8.306;2023-03-01T02:40:34;1.00;67.10
10316;DHT22;5203;48.976;8.306;2023-03-01T02:43:01;1.00;67.70
10316;DHT22;5203;48.976;8.306;2023-03-01T02:45:29;1.10;67.30
10316;DHT22;5203;48.976;8.306;2023-03-01T02:47:56;1.00;66.70
10316;DHT22;5203;48.976;8.306;2023-03-01T02:55:25;1.00;68.00
10316;DHT22;5203;48.976;8.306;2023-03-01T02:57:51;1.20;67.50
10316;DHT22;5203;48.976;8.306;2023-03-01T03:00:21;1.20;66.50
10316;DHT22;5203;48.976;8.306;2023-03-01T03:02:50;1.20;66.60
10316;DHT22;5203;48.976;8.306;2023-03-01T03:05:19;1.10;66.30
10316;DHT22;5203;48.976;8.306;2023-03-01T03:07:46;1.00;67.20
10316;DHT22;5203;48.976;8.306;2023-03-01T03:10:18;0.80;67.70
10316;DHT22;5203;48.976;8.306;2023-03-01T03:12:55;0.70;68.50
10316;DHT22;5203;48.976;8.306;2023-03-01T03:15:23;0.50;69.40
10316;DHT22;5203;48.976;8.306;2023-03-01T03:17:50;0.30;70.10
10316;DHT22;5203;48.976;8.306;2023-03-01T03:20:18;0.30;70.30
10316;DHT22;5203;48.976;8.306;2023-03-01T03:22:49;0.30;70.60
10316;DHT22;5203;48.976;8.306;2023-03-01T03:25:16;0.20;70.80
10316;DHT22;5203;48.976;8.306;2023-03-01T03:27:43;0.30;71.10
10316;DHT22;5203;48.976;8.306;2023-03-01T03:30:11;0.40;71.50
10316;DHT22;5203;48.976;8.306;2023-03-01T03:32:40;0.50;70.10
10316;DHT22;5203;48.976;8.306;2023-03-01T03:35:08;0.50;70.00
10316;DHT22;5203;48.976;8.306;2023-03-01T03:37:40;0.30;70.30
10316;DHT22;5203;48.976;8.306;2023-03-01T03:40:29;0.20;70.90
10316;DHT22;5203;48.976;8.306;2023-03-01T03:42:55;0.20;71.60
10316;DHT22;5203;48.976;8.306;2023-03-01T03:45:21;0.10;71.70
10316;DHT22;5203;48.976;8.306;2023-03-01T03:47:46;0.20;72.00
10316;DHT22;5203;48.976;8.306;2023-03-01T03:50:14;0.20;71.70
10316;DHT22;5203;48.976;8.306;2023-03-01T03:52:40;0.30;71.60
10316;DHT22;5203;48.976;8.306;2023-03-01T03:55:08;0.30;71.90
10316;DHT22;5203;48.976;8.306;2023-03-01T03:57:35;0.30;71.40
10316;DHT22;5203;48.976;8.306;2023-03-01T04:00:01;0.40;71.30
10316;DHT22;5203;48.976;8.306;2023-03-01T04:02:29;0.40;71.10
10316;DHT22;5203;48.976;8.306;2023-03-01T04:04:54;0.40;70.40
10316;DHT22;5203;48.976;8.306;2023-03-01T04:07:20;0.40;71.30
10316;DHT22;5203;48.976;8.306;2023-03-01T04:09:46;0.40;70.80
10316;DHT22;5203;48.976;8.306;2023-03-01T04:12:11;0.40;71.60
10316;DHT22;5203;48.976;8.306;2023-03-01T04:14:37;0.40;71.10
10316;DHT22;5203;48.976;8.306;2023-03-01T04:17:02;0.40;70.90
10316;DHT22;5203;48.976;8.306;2023-03-01T04:19:31;0.40;71.00
10316;DHT22;5203;48.976;8.306;2023-03-01T04:22:02;0.40;71.50
10316;DHT22;5203;48.976;8.306;2023-03-01T04:24:34;0.30;71.00
10316;DHT22;5203;48.976;8.306;2023-03-01T04:27:00;0.10;71.60
10316;DHT22;5203;48.976;8.306;2023-03-01T04:29:26;0.10;72.30
10316;DHT22;5203;48.976;8.306;2023-03-01T04:31:52;0.00;72.30
10316;DHT22;5203;48.976;8.306;2023-03-01T04:34:18;-0.10;73.10
10316;DHT22;5203;48.976;8.306;2023-03-01T04:36:43;-0.10;73.70
10316;DHT22;5203;48.976;8.306;2023-03-01T04:39:09;0.00;73.60
10316;DHT22;5203;48.976;8.306;2023-03-01T04:41:38;0.00;73.60
10316;DHT22;5203;48.976;8.306;2023-03-01T04:44:05;0.00;73.50
10316;DHT22;5203;48.976;8.306;2023-03-01T04:46:30;0.00;73.20
10316;DHT22;5203;48.976;8.306;2023-03-01T04:48:56;-0.10;73.20
10316;DHT22;5203;48.976;8.306;2023-03-01T04:51:21;-0.10;73.90
10316;DHT22;5203;48.976;8.306;2023-03-01T04:53:47;-0.20;74.20
10316;DHT22;5203;48.976;8.306;2023-03-01T04:56:13;-0.10;74.00
10316;DHT22;5203;48.976;8.306;2023-03-01T04:58:39;-0.20;74.10
10316;DHT22;5203;48.976;8.306;2023-03-01T05:01:17;-0.20;74.10
10316;DHT22;5203;48.976;8.306;2023-03-01T05:03:46;-0.20;74.00
10316;DHT22;5203;48.976;8.306;2023-03-01T05:06:12;-0.30;74.60
10316;DHT22;5203;48.976;8.306;2023-03-01T05:08:39;-0.30;74.90
10316;DHT22;5203;48.976;8.306;2023-03-01T05:11:05;-0.30;75.00
10316;DHT22;5203;48.976;8.306;2023-03-01T05:13:34;-0.30;74.90
10316;DHT22;5203;48.976;8.306;2023-03-01T05:16:01;-0.20;75.10
10316;DHT22;5203;48.976;8.306;2023-03-01T05:18:31;-0.10;74.80
10316;DHT22;5203;48.976;8.306;2023-03-01T05:21:04;-0.20;74.00
10316;DHT22;5203;48.976;8.306;2023-03-01T05:23:31;-0.10;74.70
10316;DHT22;5203;48.976;8.306;2023-03-01T05:25:58;-0.20;75.10
10316;DHT22;5203;48.976;8.306;2023-03-01T05:28:25;-0.20;74.50
10316;DHT22;5203;48.976;8.306;2023-03-01T05:30:51;-0.20;74.50
10316;DHT22;5203;48.976;8.306;2023-03-01T05:33:17;-0.40;75.10
10316;DHT22;5203;48.976;8.306;2023-03-01T05:35:44;-0.40;75.90
10316;DHT22;5203;48.976;8.306;2023-03-01T05:38:11;-0.40;75.50
10316;DHT22;5203;48.976;8.306;2023-03-01T05:40:41;-0.40;75.90
10316;DHT22;5203;48.976;8.306;2023-03-01T05:43:07;-0.50;76.20
10316;DHT22;5203;48.976;8.306;2023-03-01T05:45:36;-0.40;76.20
10316;DHT22;5203;48.976;8.306;2023-03-01T05:48:02;-0.50;76.20
10316;DHT22;5203;48.976;8.306;2023-03-01T05:50:29;-0.50;76.40
10316;DHT22;5203;48.976;8.306;2023-03-01T05:53:00;-0.50;76.60
10316;DHT22;5203;48.976;8.306;2023-03-01T05:55:27;-0.60;76.60
10316;DHT22;5203;48.976;8.306;2023-03-01T05:57:53;-0.60;77.40
10316;DHT22;5203;48.976;8.306;2023-03-01T06:00:20;-0.60;76.90
10316;DHT22;5203;48.976;8.306;2023-03-01T06:02:48;-0.60;77.60
10316;DHT22;5203;48.976;8.306;2023-03-01T06:05:14;-0.50;76.90
10316;DHT22;5203;48.976;8.306;2023-03-01T06:07:41;-0.50;76.60
10316;DHT22;5203;48.976;8.306;2023-03-01T06:10:08;-0.50;76.30
10316;DHT22;5203;48.976;8.306;2023-03-01T06:12:36;-0.50;76.80
10316;DHT22;5203;48.976;8.306;2023-03-01T06:15:02;-0.50;77.00
10316;DHT22;5203;48.976;8.306;2023-03-01T06:17:32;-0.60;77.30
10316;DHT22;5203;48.976;8.306;2023-03-01T06:20:00;-0.50;77.30
10316;DHT22;5203;48.976;8.306;2023-03-01T06:22:27;-0.60;76.90
10316;DHT22;5203;48.976;8.306;2023-03-01T06:24:52;-0.60;77.30
10316;DHT22;5203;48.976;8.306;2023-03-01T06:27:18;-0.60;77.10
10316;DHT22;5203;48.976;8.306;2023-03-01T06:29:43;-0.60;77.40
10316;DHT22;5203;48.976;8.306;2023-03-01T06:32:10;-0.60;77.30
10316;DHT22;5203;48.976;8.306;2023-03-01T06:34:35;-0.60;77.70
10316;DHT22;5203;48.976;8.306;2023-03-01T06:37:01;-0.70;77.80
10316;DHT22;5203;48.976;8.306;2023-03-01T06:39:31;-0.70;78.10
10316;DHT22;5203;48.976;8.306;2023-03-01T06:41:57;-0.60;77.50
10316;DHT22;5203;48.976;8.306;2023-03-01T06:44:23;-0.60;77.50
10316;DHT22;5203;48.976;8.306;2023-03-01T06:46:49;-0.60;77.40
10316;DHT22;5203;48.976;8.306;2023-03-01T06:49:15;-0.60;77.50
10316;DHT22;5203;48.976;8.306;2023-03-01T06:51:41;-0.60;77.10
10316;DHT22;5203;48.976;8.306;2023-03-01T06:54:07;-0.60;77.40
10316;DHT22;5203;48.976;8.306;2023-03-01T06:56:33;-0.50;77.20
10316;DHT22;5203;48.976;8.306;2023-03-01T06:58:59;-0.50;76.90
10316;DHT22;5203;48.976;8.306;2023-03-01T07:01:24;-0.50;77.20
10316;DHT22;5203;48.976;8.306;2023-03-01T07:03:56;-0.40;77.10
10316;DHT22;5203;48.976;8.306;2023-03-01T07:06:22;-0.40;76.40
10316;DHT22;5203;48.976;8.306;2023-03-01T07:08:48;-0.40;76.40
10316;DHT22;5203;48.976;8.306;2023-03-01T07:11:14;-0.40;76.60
10316;DHT22;5203;48.976;8.306;2023-03-01T07:13:40;-0.40;77.20
10316;DHT22;5203;48.976;8.306;2023-03-01T07:16:06;-0.40;76.60
10316;DHT22;5203;48.976;8.306;2023-03-01T07:18:32;-0.40;76.80
10316;DHT22;5203;48.976;8.306;2023-03-01T07:20:58;-0.40;76.80
10316;DHT22;5203;48.976;8.306;2023-03-01T07:23:24;-0.40;76.60
10316;DHT22;5203;48.976;8.306;2023-03-01T07:25:53;-0.30;76.80
10316;DHT22;5203;48.976;8.306;2023-03-01T07:28:20;-0.20;76.30
10316;DHT22;5203;48.976;8.306;2023-03-01T07:30:45;-0.20;76.10
10316;DHT22;5203;48.976;8.306;2023-03-01T07:33:11;-0.10;75.70
10316;DHT22;5203;48.976;8.306;2023-03-01T07:35:37;-0.10;75.50
10316;DHT22;5203;48.976;8.306;2023-03-01T07:38:02;-0.10;75.10
10316;DHT22;5203;48.976;8.306;2023-03-01T07:40:28;0.00;74.40
10316;DHT22;5203;48.976;8.306;2023-03-01T07:42:57;0.00;74.40
10316;DHT22;5203;48.976;8.306;2023-03-01T07:45:27;0.00;74.70
10316;DHT22;5203;48.976;8.306;2023-03-01T07:47:53;-0.10;74.40
10316;DHT22;5203;48.976;8.306;2023-03-01T07:50:19;0.00;74.60
10316;DHT22;5203;48.976;8.306;2023-03-01T07:52:46;0.00;74.40
10316;DHT22;5203;48.976;8.306;2023-03-01T07:55:12;0.00;74.10
10316;DHT22;5203;48.976;8.306;2023-03-01T07:57:38;0.00;73.50
10316;DHT22;5203;48.976;8.306;2023-03-01T08:00:05;0.00;73.80
10316;DHT22;5203;48.976;8.306;2023-03-01T08:02:31;0.10;73.80
10316;DHT22;5203;48.976;8.306;2023-03-01T08:04:56;0.20;73.50
10316;DHT22;5203;48.976;8.306;2023-03-01T08:07:22;0.20;73.60
10316;DHT22;5203;48.976;8.306;2023-03-01T08:09:48;0.30;73.60
10316;DHT22;5203;48.976;8.306;2023-03-01T08:12:13;0.40;72.50
10316;DHT22;5203;48.976;8.306;2023-03-01T08:14:41;0.40;72.10
10316;DHT22;5203;48.976;8.306;2023-03-01T08:17:07;0.40;72.00
10316;DHT22;5203;48.976;8.306;2023-03-01T08:19:32;0.50;72.80
10316;DHT22;5203;48.976;8.306;2023-03-01T08:22:03;0.60;70.90
10316;DHT22;5203;48.976;8.306;2023-03-01T08:24:28;0.70;71.00
10316;DHT22;5203;48.976;8.306;2023-03-01T08:26:54;0.70;70.30
10316;DHT22;5203;48.976;8.306;2023-03-01T08:29:21;0.80;69.70
10316;DHT22;5203;48.976;8.306;2023-03-01T08:31:47;0.70;70.20
10316;DHT22;5203;48.976;8.306;2023-03-01T08:34:16;0.90;69.70
10316;DHT22;5203;48.976;8.306;2023-03-01T08:36:44;1.00;69.20
10316;DHT22;5203;48.976;8.306;2023-03-01T08:39:13;1.20;69.40
10316;DHT22;5203;48.976;8.306;2023-03-01T08:41:39;1.30;68.40
10316;DHT22;5203;48.976;8.306;2023-03-01T08:44:05;1.30;68.50
10316;DHT22;5203;48.976;8.306;2023-03-01T08:46:34;1.30;67.20
10316;DHT22;5203;48.976;8.306;2023-03-01T08:49:06;1.30;67.30
10316;DHT22;5203;48.976;8.306;2023-03-01T08:51:32;1.30;67.40
10316;DHT22;5203;48.976;8.306;2023-03-01T08:54:06;1.40;66.90
10316;DHT22;5203;48.976;8.306;2023-03-01T08:56:32;1.50;66.90
10316;DHT22;5203;48.976;8.306;2023-03-01T08:58:58;1.50;66.70
10316;DHT22;5203;48.976;8.306;2023-03-01T09:01:23;1.70;66.60
10316;DHT22;5203;48.976;8.306;2023-03-01T09:03:49;1.70;66.50
10316;DHT22;5203;48.976;8.306;2023-03-01T09:06:15;1.90;65.90
10316;DHT22;5203;48.976;8.306;2023-03-01T09:08:43;1.90;65.40
10316;DHT22;5203;48.976;8.306;2023-03-01T09:11:11;1.90;64.90
10316;DHT22;5203;48.976;8.306;2023-03-01T09:13:37;2.00;65.10
10316;DHT22;5203;48.976;8.306;2023-03-01T09:16:05;2.10;64.50
10316;DHT22;5203;48.976;8.306;2023-03-01T09:18:32;2.10;64.40
10316;DHT22;5203;48.976;8.306;2023-03-01T09:21:06;2.10;64.50
10316;DHT22;5203;48.976;8.306;2023-03-01T09:23:38;2.10;64.30
10316;DHT22;5203;48.976;8.306;2023-03-01T09:26:25;2.20;63.90
10316;DHT22;5203;48.976;8.306;2023-03-01T09:28:54;2.30;63.50
10316;DHT22;5203;48.976;8.306;2023-03-01T09:31:21;2.30;63.60
10316;DHT22;5203;48.976;8.306;2023-03-01T09:33:48;2.40;62.90
10316;DHT22;5203;48.976;8.306;2023-03-01T09:36:16;2.50;62.60
10316;DHT22;5203;48.976;8.306;2023-03-01T09:38:43;2.60;61.70
10316;DHT22;5203;48.976;8.306;2023-03-01T09:41:17;2.60;62.20
10316;DHT22;5203;48.976;8.306;2023-03-01T09:43:52;2.70;62.20
10316;DHT22;5203;48.976;8.306;2023-03-01T09:46:21;2.90;61.30
10316;DHT22;5203;48.976;8.306;2023-03-01T09:49:05;3.00;61.10
10316;DHT22;5203;48.976;8.306;2023-03-01T09:51:35;3.10;60.10
10316;DHT22;5203;48.976;8.306;2023-03-01T09:54:05;3.30;59.60
10316;DHT22;5203;48.976;8.306;2023-03-01T09:59:33;3.50;58.60
10316;DHT22;5203;48.976;8.306;2023-03-01T10:05:15;3.70;57.80
10316;DHT22;5203;48.976;8.306;2023-03-01T10:08:06;3.90;57.80
10316;DHT22;5203;48.976;8.306;2023-03-01T10:10:40;4.10;56.80
10316;DHT22;5203;48.976;8.306;2023-03-01T10:16:26;4.60;55.10
10316;DHT22;5203;48.976;8.306;2023-03-01T10:19:00;4.60;55.00
10316;DHT22;5203;48.976;8.306;2023-03-01T10:21:28;4.70;54.60
10316;DHT22;5203;48.976;8.306;2023-03-01T10:24:08;4.90;53.70
10316;DHT22;5203;48.976;8.306;2023-03-01T10:29:13;5.10;52.90
10316;DHT22;5203;48.976;8.306;2023-03-01T10:31:47;5.30;52.30
10316;DHT22;5203;48.976;8.306;2023-03-01T10:34:18;5.30;51.60
10316;DHT22;5203;48.976;8.306;2023-03-01T10:36:48;5.30;51.80
10316;DHT22;5203;48.976;8.306;2023-03-01T10:39:19;5.40;51.00
10316;DHT22;5203;48.976;8.306;2023-03-01T10:42:02;5.70;51.00
10316;DHT22;5203;48.976;8.306;2023-03-01T10:44:46;5.80;49.90
10316;DHT22;5203;48.976;8.306;2023-03-01T10:47:19;5.90;49.90
10316;DHT22;5203;48.976;8.306;2023-03-01T10:49:56;6.20;49.00
10316;DHT22;5203;48.976;8.306;2023-03-01T10:52:25;6.10;49.00
10316;DHT22;5203;48.976;8.306;2023-03-01T10:57:48;6.20;48.60
10316;DHT22;5203;48.976;8.306;2023-03-01T11:00:23;6.40;48.20
10316;DHT22;5203;48.976;8.306;2023-03-01T11:03:13;6.60;47.60
10316;DHT22;5203;48.976;8.306;2023-03-01T11:16:23;7.10;45.70
10316;DHT22;5203;48.976;8.306;2023-03-01T11:19:01;7.10;45.50
10316;DHT22;5203;48.976;8.306;2023-03-01T11:21:32;7.30;45.60
10316;DHT22;5203;48.976;8.306;2023-03-01T11:24:00;7.30;44.30
10316;DHT22;5203;48.976;8.306;2023-03-01T11:26:28;7.30;45.10
10316;DHT22;5203;48.976;8.306;2023-03-01T11:28:56;7.60;44.50
10316;DHT22;5203;48.976;8.306;2023-03-01T11:31:24;7.60;43.70
10316;DHT22;5203;48.976;8.306;2023-03-01T11:33:59;7.70;43.70
10316;DHT22;5203;48.976;8.306;2023-03-01T11:42:05;8.10;43.10
10316;DHT22;5203;48.976;8.306;2023-03-01T11:44:34;8.30;41.90
10316;DHT22;5203;48.976;8.306;2023-03-01T11:47:10;8.10;42.20
10316;DHT22;5203;48.976;8.306;2023-03-01T12:00:39;8.70;42.30
10316;DHT22;5203;48.976;8.306;2023-03-01T12:14:23;9.30;39.80
10316;DHT22;5203;48.976;8.306;2023-03-01T12:22:31;9.90;38.40
10316;DHT22;5203;48.976;8.306;2023-03-01T12:28:29;9.60;39.20
10316;DHT22;5203;48.976;8.306;2023-03-01T12:40:10;10.30;37.00
10316;DHT22;5203;48.976;8.306;2023-03-01T12:48:59;10.80;36.40
10316;DHT22;5203;48.976;8.306;2023-03-01T12:51:30;10.80;36.20
10316;DHT22;5203;48.976;8.306;2023-03-01T12:53:59;10.60;36.60
10316;DHT22;5203;48.976;8.306;2023-03-01T12:56:30;11.00;36.60
10316;DHT22;5203;48.976;8.306;2023-03-01T13:07:19;10.80;36.00
10316;DHT22;5203;48.976;8.306;2023-03-01T13:12:50;10.60;36.20
10316;DHT22;5203;48.976;8.306;2023-03-01T13:17:52;10.70;36.50
10316;DHT22;5203;48.976;8.306;2023-03-01T13:20:21;10.90;35.60
10316;DHT22;5203;48.976;8.306;2023-03-01T13:23:47;11.00;35.50
10316;DHT22;5203;48.976;8.306;2023-03-01T13:26:15;11.40;35.20
10316;DHT22;5203;48.976;8.306;2023-03-01T13:34:00;11.60;34.60
10316;DHT22;5203;48.976;8.306;2023-03-01T13:46:49;11.40;34.50
10316;DHT22;5203;48.976;8.306;2023-03-01T13:49:19;11.60;34.70
10316;DHT22;5203;48.976;8.306;2023-03-01T13:51:49;11.90;33.90
10316;DHT22;5203;48.976;8.306;2023-03-01T13:54:17;12.20;33.30
10316;DHT22;5203;48.976;8.306;2023-03-01T13:56:47;12.40;33.40
10316;DHT22;5203;48.976;8.306;2023-03-01T13:59:21;12.30;33.40
10316;DHT22;5203;48.976;8.306;2023-03-01T14:01:58;12.40;33.20
10316;DHT22;5203;48.976;8.306;2023-03-01T14:04:30;12.50;32.60
10316;DHT22;5203;48.976;8.306;2023-03-01T14:07:19;12.60;32.40
10316;DHT22;5203;48.976;8.306;2023-03-01T14:09:53;12.50;32.70
10316;DHT22;5203;48.976;8.306;2023-03-01T14:20:26;12.00;33.40
10316;DHT22;5203;48.976;8.306;2023-03-01T14:22:54;12.10;33.10
10316;DHT22;5203;48.976;8.306;2023-03-01T14:30:47;11.90;34.20
10316;DHT22;5203;48.976;8.306;2023-03-01T14:38:46;12.30;33.30
10316;DHT22;5203;48.976;8.306;2023-03-01T14:41:17;12.50;33.20
10316;DHT22;5203;48.976;8.306;2023-03-01T14:43:57;12.60;32.90
10316;DHT22;5203;48.976;8.306;2023-03-01T14:46:38;12.90;32.20
10316;DHT22;5203;48.976;8.306;2023-03-01T14:49:09;12.80;32.50
10316;DHT22;5203;48.976;8.306;2023-03-01T14:51:42;12.80;32.30
10316;DHT22;5203;48.976;8.306;2023-03-01T14:54:24;12.80;32.00
10316;DHT22;5203;48.976;8.306;2023-03-01T14:56:52;12.50;32.60
10316;DHT22;5203;48.976;8.306;2023-03-01T14:59:23;12.60;32.30
10316;DHT22;5203;48.976;8.306;2023-03-01T15:01:53;12.50;32.60
10316;DHT22;5203;48.976;8.306;2023-03-01T15:04:21;12.60;33.00
10316;DHT22;5203;48.976;8.306;2023-03-01T15:06:51;12.60;33.00
10316;DHT22;5203;48.976;8.306;2023-03-01T15:09:17;12.70;32.70
10316;DHT22;5203;48.976;8.306;2023-03-01T15:11:44;12.70;32.90
10316;DHT22;5203;48.976;8.306;2023-03-01T15:14:39;12.60;32.80
10316;DHT22;5203;48.976;8.306;2023-03-01T15:17:32;12.50;32.80
10316;DHT22;5203;48.976;8.306;2023-03-01T15:20:01;12.10;33.30
10316;DHT22;5203;48.976;8.306;2023-03-01T15:22:28;12.10;33.50
10316;DHT22;5203;48.976;8.306;2023-03-01T15:24:54;12.30;33.20
10316;DHT22;5203;48.976;8.306;2023-03-01T15:27:22;12.30;33.00
10316;DHT22;5203;48.976;8.306;2023-03-01T15:29:51;12.20;33.20
10316;DHT22;5203;48.976;8.306;2023-03-01T15:32:35;11.90;33.90
10316;DHT22;5203;48.976;8.306;2023-03-01T15:35:40;11.90;34.30
10316;DHT22;5203;48.976;8.306;2023-03-01T15:40:51;12.00;34.00
10316;DHT22;5203;48.976;8.306;2023-03-01T15:43:37;11.70;34.40
10316;DHT22;5203;48.976;8.306;2023-03-01T15:46:03;11.80;34.60
10316;DHT22;5203;48.976;8.306;2023-03-01T15:48:29;11.90;34.30
10316;DHT22;5203;48.976;8.306;2023-03-01T15:50:58;11.50;34.80
10316;DHT22;5203;48.976;8.306;2023-03-01T15:53:24;11.10;35.50
10316;DHT22;5203;48.976;8.306;2023-03-01T15:55:52;10.90;36.20
10316;DHT22;5203;48.976;8.306;2023-03-01T15:58:23;10.90;36.50
10316;DHT22;5203;48.976;8.306;2023-03-01T16:00:50;10.70;36.60
10316;DHT22;5203;48.976;8.306;2023-03-01T16:03:22;10.70;36.80
10316;DHT22;5203;48.976;8.306;2023-03-01T16:05:49;10.60;36.60
10316;DHT22;5203;48.976;8.306;2023-03-01T16:08:16;10.50;36.90
10316;DHT22;5203;48.976;8.306;2023-03-01T16:10:42;10.40;37.40
10316;DHT22;5203;48.976;8.306;2023-03-01T16:13:12;10.30;37.70
10316;DHT22;5203;48.976;8.306;2023-03-01T16:15:38;10.00;38.10
10316;DHT22;5203;48.976;8.306;2023-03-01T16:18:05;9.80;38.60
10316;DHT22;5203;48.976;8.306;2023-03-01T16:20:33;9.70;38.80
10316;DHT22;5203;48.976;8.306;2023-03-01T16:23:04;9.60;38.90
10316;DHT22;5203;48.976;8.306;2023-03-01T16:25:31;9.70;39.20
10316;DHT22;5203;48.976;8.306;2023-03-01T16:27:57;9.60;39.20
10316;DHT22;5203;48.976;8.306;2023-03-01T16:30:26;9.50;39.30
10316;DHT22;5203;48.976;8.306;2023-03-01T16:32:52;9.40;39.50
10316;DHT22;5203;48.976;8.306;2023-03-01T16:35:19;9.40;40.10
10316;DHT22;5203;48.976;8.306;2023-03-01T16:37:46;9.40;39.90
10316;DHT22;5203;48.976;8.306;2023-03-01T16:40:22;9.30;40.00
10316;DHT22;5203;48.976;8.306;2023-03-01T16:42:48;9.20;40.50
10316;DHT22;5203;48.976;8.306;2023-03-01T16:45:15;9.10;40.60
10316;DHT22;5203;48.976;8.306;2023-03-01T16:47:41;9.10;40.70
10316;DHT22;5203;48.976;8.306;2023-03-01T16:50:07;8.90;41.00
10316;DHT22;5203;48.976;8.306;2023-03-01T16:52:33;8.90;41.20
10316;DHT22;5203;48.976;8.306;2023-03-01T16:54:59;8.80;41.10
10316;DHT22;5203;48.976;8.306;2023-03-01T16:57:25;8.70;41.70
10316;DHT22;5203;48.976;8.306;2023-03-01T16:59:54;8.60;41.70
10316;DHT22;5203;48.976;8.306;2023-03-01T17:02:19;8.50;42.20
10316;DHT22;5203;48.976;8.306;2023-03-01T17:04:51;8.40;42.30
10316;DHT22;5203;48.976;8.306;2023-03-01T17:07:16;8.50;42.40
10316;DHT22;5203;48.976;8.306;2023-03-01T17:09:42;8.50;42.10
10316;DHT22;5203;48.976;8.306;2023-03-01T17:12:08;8.40;42.10
10316;DHT22;5203;48.976;8.306;2023-03-01T17:14:34;8.40;42.30
10316;DHT22;5203;48.976;8.306;2023-03-01T17:16:59;8.30;42.60
10316;DHT22;5203;48.976;8.306;2023-03-01T17:19:27;8.20;42.90
10316;DHT22;5203;48.976;8.306;2023-03-01T17:21:54;8.20;43.10
10316;DHT22;5203;48.976;8.306;2023-03-01T17:24:19;8.20;42.80
10316;DHT22;5203;48.976;8.306;2023-03-01T17:26:45;8.00;43.30
10316;DHT22;5203;48.976;8.306;2023-03-01T17:29:11;8.00;43.70
10316;DHT22;5203;48.976;8.306;2023-03-01T17:31:38;8.00;44.00
10316;DHT22;5203;48.976;8.306;2023-03-01T17:34:03;7.90;43.90
10316;DHT22;5203;48.976;8.306;2023-03-01T17:36:29;7.90;43.70
10316;DHT22;5203;48.976;8.306;2023-03-01T17:38:55;8.00;43.90
10316;DHT22;5203;48.976;8.306;2023-03-01T17:41:20;7.90;43.80
10316;DHT22;5203;48.976;8.306;2023-03-01T17:43:48;7.90;44.00
10316;DHT22;5203;48.976;8.306;2023-03-01T17:46:14;7.90;44.00
10316;DHT22;5203;48.976;8.306;2023-03-01T17:48:40;7.80;44.10
10316;DHT22;5203;48.976;8.306;2023-03-01T17:51:07;7.80;44.20
10316;DHT22;5203;48.976;8.306;2023-03-01T17:53:34;7.70;44.40
10316;DHT22;5203;48.976;8.306;2023-03-01T17:56:02;7.70;44.60
10316;DHT22;5203;48.976;8.306;2023-03-01T17:58:28;7.70;44.70
10316;DHT22;5203;48.976;8.306;2023-03-01T18:00:54;7.70;44.80
10316;DHT22;5203;48.976;8.306;2023-03-01T18:03:20;7.70;45.20
10316;DHT22;5203;48.976;8.306;2023-03-01T18:05:46;7.70;45.20
10316;DHT22;5203;48.976;8.306;2023-03-01T18:08:13;7.70;44.90
10316;DHT22;5203;48.976;8.306;2023-03-01T18:10:41;7.60;45.20
10316;DHT22;5203;48.976;8.306;2023-03-01T18:13:08;7.60;45.00
10316;DHT22;5203;48.976;8.306;2023-03-01T18:15:33;7.60;46.20
10316;DHT22;5203;48.976;8.306;2023-03-01T18:17:59;7.60;45.60
10316;DHT22;5203;48.976;8.306;2023-03-01T18:20:25;7.60;45.50
10316;DHT22;5203;48.976;8.306;2023-03-01T18:22:51;7.60;45.90
10316;DHT22;5203;48.976;8.306;2023-03-01T18:25:18;7.70;45.90
10316;DHT22;5203;48.976;8.306;2023-03-01T18:27:44;7.60;45.90
10316;DHT22;5203;48.976;8.306;2023-03-01T18:30:12;7.50;48.00
10316;DHT22;5203;48.976;8.306;2023-03-01T18:32:38;7.50;47.40